createdAt,value
2023-05-22T00:00:10.477Z,25.01
2023-05-22T00:02:36.961Z,24.99
2023-05-22T00:05:03.638Z,24.97
2023-05-22T00:07:30.122Z,24.97
2023-05-22T00:09:56.621Z,24.97
2023-05-22T00:12:23.229Z,24.94
2023-05-22T00:14:49.600Z,24.98
2023-05-22T00:17:15.986Z,24.97
2023-05-22T00:19:42.649Z,24.97
2023-05-22T00:22:09.068Z,24.96
2023-05-22T00:24:35.423Z,24.96
2023-05-22T00:27:02.047Z,24.94
2023-05-22T00:29:28.442Z,24.93
2023-05-22T00:31:54.845Z,24.95
2023-05-22T00:34:21.281Z,24.98
2023-05-22T00:36:47.816Z,24.93
2023-05-22T00:39:14.333Z,24.93
2023-05-22T00:41:40.721Z,24.93
2023-05-22T00:44:07.172Z,24.91
2023-05-22T00:46:33.596Z,24.91
2023-05-22T00:48:59.965Z,24.92
2023-05-22T00:51:26.341Z,24.91
2023-05-22T00:53:52.701Z,24.90
2023-05-22T00:56:19.090Z,24.91
2023-05-22T00:58:45.487Z,24.92
2023-05-22T01:01:11.902Z,24.93
2023-05-22T01:03:38.479Z,24.91
2023-05-22T01:06:04.892Z,24.92
2023-05-22T01:08:31.267Z,24.90
2023-05-22T01:10:57.630Z,24.88
2023-05-22T01:13:23.999Z,24.90
2023-05-22T01:15:50.367Z,24.91
2023-05-22T01:18:16.799Z,24.90
2023-05-22T01:20:43.227Z,24.89
2023-05-22T01:23:09.632Z,24.91
2023-05-22T01:25:36.051Z,24.90
2023-05-22T01:28:02.490Z,24.88
2023-05-22T01:30:28.919Z,24.93
2023-05-22T01:32:55.407Z,24.88
2023-05-22T01:35:22.012Z,24.87
2023-05-22T01:37:48.388Z,24.88
2023-05-22T01:40:15.308Z,24.88
2023-05-22T01:42:41.699Z,24.84
2023-05-22T01:45:08.454Z,24.86
2023-05-22T01:47:34.855Z,24.88
2023-05-22T01:50:01.226Z,24.87
2023-05-22T01:52:27.620Z,24.83
2023-05-22T01:54:54.015Z,24.87
2023-05-22T01:57:20.413Z,24.89
2023-05-22T01:59:46.854Z,24.87
2023-05-22T02:02:13.249Z,24.87
2023-05-22T02:04:39.716Z,24.86
2023-05-22T02:07:06.095Z,24.88
2023-05-22T02:09:32.489Z,24.86
2023-05-22T02:11:58.859Z,24.91
2023-05-22T02:14:25.519Z,24.89
2023-05-22T02:16:51.877Z,24.86
2023-05-22T02:19:18.321Z,24.84
2023-05-22T02:21:44.774Z,24.86
2023-05-22T02:24:11.138Z,24.85
2023-05-22T02:26:37.561Z,24.84
2023-05-22T02:29:04.011Z,24.85
2023-05-22T02:31:30.442Z,24.82
2023-05-22T02:33:56.861Z,24.84
2023-05-22T02:36:23.299Z,24.83
2023-05-22T02:38:49.761Z,24.81
2023-05-22T02:41:16.128Z,24.82
2023-05-22T02:43:42.569Z,24.82
2023-05-22T02:46:09.067Z,24.82
2023-05-22T02:48:35.459Z,24.80
2023-05-22T02:51:01.821Z,24.83
2023-05-22T02:53:28.179Z,24.82
2023-05-22T02:55:54.560Z,24.79
2023-05-22T02:58:20.911Z,24.80
2023-05-22T03:00:47.414Z,24.77
2023-05-22T03:03:13.982Z,24.83
2023-05-22T03:05:40.590Z,24.81
2023-05-22T03:08:06.950Z,24.81
2023-05-22T03:10:33.365Z,24.79
2023-05-22T03:12:59.745Z,24.82
2023-05-22T03:15:26.155Z,24.80
2023-05-22T03:17:52.589Z,24.83
2023-05-22T03:20:18.985Z,24.79
2023-05-22T03:22:45.513Z,24.77
2023-05-22T03:25:11.935Z,24.76
2023-05-22T03:27:38.305Z,24.78
2023-05-22T03:30:04.681Z,24.77
2023-05-22T03:32:31.286Z,24.75
2023-05-22T03:34:57.695Z,24.78
2023-05-22T03:37:24.091Z,24.77
2023-05-22T03:39:50.471Z,24.78
2023-05-22T03:42:16.854Z,24.78
2023-05-22T03:44:43.210Z,24.78
2023-05-22T03:47:09.603Z,24.77
2023-05-22T03:49:36.202Z,24.79
2023-05-22T03:52:02.617Z,24.76
2023-05-22T03:54:28.970Z,24.77
2023-05-22T03:56:55.329Z,24.74
2023-05-22T03:59:21.738Z,24.75
2023-05-22T04:01:48.164Z,24.77
2023-05-22T04:04:14.575Z,24.77
2023-05-22T04:06:41.008Z,24.74
2023-05-22T04:09:07.380Z,24.75
2023-05-22T04:11:33.738Z,24.74
2023-05-22T04:14:00.149Z,24.73
2023-05-22T04:16:26.611Z,24.75
2023-05-22T04:18:53.125Z,24.74
2023-05-22T04:21:19.549Z,24.71
2023-05-22T04:23:46.131Z,24.71
2023-05-22T04:26:12.562Z,24.74
2023-05-22T04:28:39.018Z,24.71
2023-05-22T04:31:05.459Z,24.75
2023-05-22T04:33:31.845Z,24.76
2023-05-22T04:35:58.497Z,24.76
2023-05-22T04:38:25.014Z,24.76
2023-05-22T04:40:51.512Z,24.74
2023-05-22T04:43:17.922Z,24.76
2023-05-22T04:45:44.331Z,24.73
2023-05-22T04:48:10.760Z,24.74
2023-05-22T04:50:37.402Z,24.71
2023-05-22T04:53:03.906Z,24.75
2023-05-22T04:55:30.551Z,24.75
2023-05-22T04:57:56.981Z,24.73
2023-05-22T05:00:23.366Z,24.73
2023-05-22T05:02:49.794Z,24.76
2023-05-22T05:05:16.220Z,24.76
2023-05-22T05:07:42.641Z,24.78
2023-05-22T05:10:09.056Z,24.78
2023-05-22T05:12:35.440Z,24.77
2023-05-22T05:15:01.849Z,24.78
2023-05-22T05:17:28.347Z,24.78
2023-05-22T05:19:54.761Z,24.79
2023-05-22T05:22:21.127Z,24.74
2023-05-22T05:24:47.763Z,24.76
2023-05-22T05:27:14.225Z,24.79
2023-05-22T05:29:40.617Z,24.80
2023-05-22T05:32:07.007Z,24.83
2023-05-22T05:34:33.463Z,24.81
2023-05-22T05:36:59.846Z,24.84
2023-05-22T05:39:26.192Z,24.83
2023-05-22T05:41:52.567Z,24.84
2023-05-22T05:44:19.075Z,24.86
2023-05-22T05:46:45.532Z,24.83
2023-05-22T05:49:12.012Z,24.86
2023-05-22T05:51:38.439Z,24.85
2023-05-22T05:54:04.808Z,24.87
2023-05-22T05:56:31.381Z,24.85
2023-05-22T05:58:57.801Z,24.90
2023-05-22T06:01:24.240Z,24.83
2023-05-22T06:03:50.769Z,24.86
2023-05-22T06:06:17.186Z,24.84
2023-05-22T06:08:43.865Z,24.83
2023-05-22T06:11:10.220Z,24.84
2023-05-22T06:13:36.589Z,24.86
2023-05-22T06:16:05.866Z,24.90
2023-05-22T06:18:33.174Z,24.92
2023-05-22T06:20:59.733Z,24.93
2023-05-22T06:23:26.151Z,24.96
2023-05-22T06:25:52.584Z,24.91
2023-05-22T06:28:20.141Z,24.91
2023-05-22T06:30:46.757Z,24.92
2023-05-22T06:33:13.417Z,24.86
2023-05-22T06:35:39.975Z,24.92
2023-05-22T06:38:06.367Z,24.93
2023-05-22T06:40:32.823Z,24.96
2023-05-22T06:42:59.251Z,25.04
2023-05-22T06:45:25.636Z,25.02
2023-05-22T06:47:52.037Z,25.03
2023-05-22T06:50:18.510Z,25.05
2023-05-22T06:52:44.951Z,25.01
2023-05-22T06:55:11.327Z,25.07
2023-05-22T06:57:37.739Z,25.08
2023-05-22T07:00:04.154Z,25.18
2023-05-22T07:02:30.576Z,25.19
2023-05-22T07:04:57.009Z,25.28
2023-05-22T07:07:23.439Z,25.30
2023-05-22T07:09:49.944Z,25.38
2023-05-22T07:12:16.346Z,25.38
2023-05-22T07:14:42.979Z,25.45
2023-05-22T07:17:09.362Z,25.38
2023-05-22T07:19:35.894Z,25.40
2023-05-22T07:22:02.468Z,25.44
2023-05-22T07:24:28.917Z,25.59
2023-05-22T07:26:55.320Z,25.49
2023-05-22T07:29:23.192Z,25.53
2023-05-22T07:31:49.893Z,25.56
2023-05-22T07:34:16.284Z,25.51
2023-05-22T07:36:42.703Z,25.60
2023-05-22T07:39:09.115Z,25.61
2023-05-22T07:41:35.492Z,25.67
2023-05-22T07:44:01.899Z,25.64
2023-05-22T07:46:28.292Z,25.72
2023-05-22T07:48:54.737Z,25.68
2023-05-22T07:51:21.211Z,25.72
2023-05-22T07:53:47.627Z,25.68
2023-05-22T07:56:14.049Z,25.68
2023-05-22T07:58:40.458Z,25.71
2023-05-22T08:01:08.783Z,25.69
2023-05-22T08:03:36.096Z,25.78
2023-05-22T08:06:02.619Z,25.74
2023-05-22T08:08:31.301Z,25.79
2023-05-22T08:13:27.797Z,25.93
2023-05-22T08:16:00.265Z,25.78
2023-05-22T08:18:27.508Z,25.77
2023-05-22T08:20:54.958Z,25.83
2023-05-22T08:23:21.507Z,25.83
2023-05-22T08:25:47.884Z,25.85
2023-05-22T08:28:14.258Z,25.90
2023-05-22T08:30:40.866Z,25.93
2023-05-22T08:33:07.541Z,26.01
2023-05-22T08:35:34.116Z,26.05
2023-05-22T08:38:00.492Z,26.08
2023-05-22T08:40:26.907Z,26.09
2023-05-22T08:42:53.328Z,26.13
2023-05-22T08:45:19.973Z,26.06
2023-05-22T08:47:46.415Z,26.12
2023-05-22T08:50:12.858Z,26.10
2023-05-22T08:52:39.212Z,26.23
2023-05-22T08:55:05.583Z,26.18
2023-05-22T08:57:32.000Z,26.28
2023-05-22T08:59:58.449Z,26.26
2023-05-22T09:02:24.880Z,26.17
2023-05-22T09:04:51.376Z,26.23
2023-05-22T09:07:17.951Z,26.30
2023-05-22T09:09:44.391Z,26.34
2023-05-22T09:12:10.811Z,26.24
2023-05-22T09:14:37.244Z,26.34
2023-05-22T09:17:03.706Z,26.33
2023-05-22T09:19:30.231Z,26.23
2023-05-22T09:21:56.736Z,26.29
2023-05-22T09:24:23.200Z,26.19
2023-05-22T09:26:49.702Z,26.29
2023-05-22T09:29:16.152Z,26.25
2023-05-22T09:31:42.603Z,26.25
2023-05-22T09:34:09.106Z,26.18
2023-05-22T09:36:35.489Z,26.17
2023-05-22T09:39:01.938Z,26.16
2023-05-22T09:41:28.338Z,26.20
2023-05-22T09:43:55.114Z,26.18
2023-05-22T09:46:21.580Z,26.19
2023-05-22T09:48:48.038Z,26.26
2023-05-22T09:51:14.675Z,26.21
2023-05-22T09:53:41.118Z,26.18
2023-05-22T09:56:07.550Z,26.15
2023-05-22T09:58:33.981Z,26.06
2023-05-22T10:01:00.379Z,26.07
2023-05-22T10:03:26.806Z,26.08
2023-05-22T10:05:53.362Z,26.16
2023-05-22T10:08:19.787Z,26.14
2023-05-22T10:10:46.441Z,26.15
2023-05-22T10:13:12.815Z,26.21
2023-05-22T10:15:39.189Z,26.13
2023-05-22T10:18:05.827Z,26.16
2023-05-22T10:20:32.471Z,26.16
2023-05-22T10:22:58.880Z,26.19
2023-05-22T10:25:25.251Z,26.22
2023-05-22T10:27:51.621Z,26.21
2023-05-22T10:30:18.205Z,26.36
2023-05-22T10:32:44.756Z,26.25
2023-05-22T10:35:11.151Z,26.19
2023-05-22T10:37:37.593Z,26.19
2023-05-22T10:40:04.027Z,26.20
2023-05-22T10:42:30.496Z,26.23
2023-05-22T10:44:56.937Z,26.27
2023-05-22T10:47:23.331Z,26.23
2023-05-22T10:49:49.740Z,26.28
2023-05-22T10:52:16.169Z,26.23
2023-05-22T10:54:42.596Z,26.28
2023-05-22T10:57:09.000Z,26.22
2023-05-22T10:59:35.610Z,26.16
2023-05-22T11:02:02.084Z,26.17
2023-05-22T11:04:28.567Z,26.16
2023-05-22T11:06:55.012Z,26.17
2023-05-22T11:09:21.532Z,26.17
2023-05-22T11:11:47.956Z,26.18
2023-05-22T11:14:14.411Z,26.12
2023-05-22T11:16:40.913Z,26.16
2023-05-22T11:19:21.870Z,26.19
2023-05-22T11:21:49.466Z,26.21
2023-05-22T11:24:15.955Z,26.10
2023-05-22T11:26:42.309Z,26.14
2023-05-22T11:29:09.567Z,26.17
2023-05-22T11:31:36.018Z,26.13
2023-05-22T11:34:02.656Z,26.16
2023-05-22T11:36:29.024Z,26.09
2023-05-22T11:38:55.379Z,26.10
2023-05-22T11:41:21.786Z,26.10
2023-05-22T11:43:48.195Z,26.10
2023-05-22T11:46:14.667Z,26.11
2023-05-22T11:48:41.043Z,26.09
2023-05-22T11:51:07.453Z,26.06
2023-05-22T11:53:33.984Z,26.09
2023-05-22T11:56:00.449Z,26.07
2023-05-22T11:58:26.861Z,26.08
2023-05-22T12:00:53.278Z,26.04
2023-05-22T12:03:19.730Z,25.96
2023-05-22T12:05:46.246Z,25.97
2023-05-22T12:08:12.913Z,25.97
2023-05-22T12:10:39.530Z,25.97
2023-05-22T12:13:06.234Z,25.99
2023-05-22T12:15:32.644Z,26.06
2023-05-22T12:17:59.078Z,25.98
2023-05-22T12:20:25.553Z,25.96
2023-05-22T12:22:51.939Z,25.97
2023-05-22T12:25:18.356Z,26.01
2023-05-22T12:27:44.767Z,26.02
2023-05-22T12:30:11.214Z,25.95
2023-05-22T12:32:37.792Z,25.98
2023-05-22T12:35:04.233Z,26.00
2023-05-22T12:37:30.646Z,25.94
2023-05-22T12:39:57.051Z,25.94
2023-05-22T12:42:23.420Z,25.89
2023-05-22T12:44:49.772Z,25.91
2023-05-22T12:47:16.323Z,25.96
2023-05-22T12:49:42.748Z,25.94
2023-05-22T12:52:09.148Z,25.92
2023-05-22T12:54:35.703Z,25.91
2023-05-22T12:57:02.075Z,25.96
2023-05-22T12:59:28.448Z,25.92
2023-05-22T13:01:54.976Z,25.93
2023-05-22T13:04:21.445Z,25.96
2023-05-22T13:06:47.869Z,25.90
2023-05-22T13:09:14.572Z,25.93
2023-05-22T13:11:41.249Z,25.93
2023-05-22T13:14:07.706Z,25.96
2023-05-22T13:16:34.201Z,25.95
2023-05-22T13:19:00.726Z,25.93
2023-05-22T13:21:27.373Z,25.93
2023-05-22T13:23:53.784Z,25.90
2023-05-22T13:26:20.228Z,25.95
2023-05-22T13:28:46.734Z,25.93
2023-05-22T13:31:13.139Z,25.92
2023-05-22T13:33:39.622Z,25.99
2023-05-22T13:36:06.069Z,26.04
2023-05-22T13:38:32.519Z,25.96
2023-05-22T13:40:58.920Z,25.88
2023-05-22T13:43:25.314Z,25.91
2023-05-22T13:45:51.734Z,26.00
2023-05-22T13:48:18.141Z,26.06
2023-05-22T13:50:44.800Z,26.06
2023-05-22T13:53:11.274Z,26.12
2023-05-22T13:55:37.878Z,26.01
2023-05-22T13:58:04.518Z,26.06
2023-05-22T14:00:30.892Z,25.98
2023-05-22T14:02:57.634Z,26.03
2023-05-22T14:05:24.108Z,26.09
2023-05-22T14:07:50.607Z,26.05
2023-05-22T14:10:16.973Z,26.02
2023-05-22T14:12:43.392Z,25.90
2023-05-22T14:15:09.820Z,25.98
2023-05-22T14:17:36.345Z,25.91
2023-05-22T14:20:02.899Z,25.98
2023-05-22T14:22:29.326Z,26.04
2023-05-22T14:24:55.720Z,26.16
2023-05-22T14:27:22.071Z,25.96
2023-05-22T14:29:48.427Z,26.15
2023-05-22T14:32:14.816Z,26.03
2023-05-22T14:34:41.185Z,25.96
2023-05-22T14:37:07.559Z,25.98
2023-05-22T14:39:33.927Z,25.96
2023-05-22T14:42:00.275Z,25.97
2023-05-22T14:44:26.772Z,26.12
2023-05-22T14:46:53.271Z,26.15
2023-05-22T14:49:19.676Z,26.17
2023-05-22T14:51:46.083Z,26.04
2023-05-22T14:56:39.099Z,25.98
2023-05-22T14:59:05.474Z,25.86
2023-05-22T15:01:31.868Z,25.84
2023-05-22T15:03:58.316Z,25.82
2023-05-22T15:06:24.745Z,25.79
2023-05-22T15:08:51.124Z,25.79
2023-05-22T15:11:17.572Z,25.84
2023-05-22T15:13:44.060Z,25.82
2023-05-22T15:16:10.604Z,25.85
2023-05-22T15:18:37.151Z,25.85
2023-05-22T15:21:03.882Z,25.83
2023-05-22T15:23:30.296Z,25.88
2023-05-22T15:25:56.658Z,25.84
2023-05-22T15:28:23.136Z,25.86
2023-05-22T15:30:49.528Z,25.84
2023-05-22T15:33:15.954Z,25.84
2023-05-22T15:35:42.437Z,25.85
2023-05-22T15:38:08.837Z,25.84
2023-05-22T15:40:35.210Z,25.85
2023-05-22T15:43:01.829Z,25.87
2023-05-22T15:45:28.619Z,25.88
2023-05-22T15:47:55.187Z,25.84
2023-05-22T15:50:21.620Z,25.89
2023-05-22T15:52:47.986Z,25.85
2023-05-22T15:55:14.582Z,25.88
2023-05-22T15:57:41.000Z,25.85
2023-05-22T16:00:07.684Z,25.92
2023-05-22T16:02:34.109Z,25.91
2023-05-22T16:05:00.743Z,25.89
2023-05-22T16:07:27.131Z,25.88
2023-05-22T16:09:53.533Z,25.91
2023-05-22T16:12:19.899Z,25.91
2023-05-22T16:14:46.275Z,25.86
2023-05-22T16:17:12.649Z,25.85
2023-05-22T16:19:39.188Z,25.92
2023-05-22T16:22:05.599Z,25.93
2023-05-22T16:24:31.973Z,25.91
2023-05-22T16:26:58.351Z,25.91
2023-05-22T16:29:24.795Z,25.93
2023-05-22T16:31:51.251Z,25.91
2023-05-22T16:34:17.755Z,25.95
2023-05-22T16:36:44.152Z,25.91
2023-05-22T16:39:10.552Z,25.84
2023-05-22T16:41:36.972Z,25.89
2023-05-22T16:44:03.403Z,25.90
2023-05-22T16:46:29.816Z,25.89
2023-05-22T16:48:56.330Z,25.84
2023-05-22T16:51:22.703Z,25.89
2023-05-22T16:53:49.304Z,25.87
2023-05-22T16:56:15.694Z,25.90
2023-05-22T16:58:42.065Z,25.86
2023-05-22T17:01:08.755Z,25.88
2023-05-22T17:03:35.476Z,25.88
2023-05-22T17:06:02.063Z,25.87
2023-05-22T17:08:28.493Z,25.83
2023-05-22T17:10:54.949Z,25.83
2023-05-22T17:13:21.365Z,25.77
2023-05-22T17:15:47.768Z,25.75
2023-05-22T17:18:14.212Z,25.78
2023-05-22T17:20:40.641Z,25.73
2023-05-22T17:23:07.760Z,25.78
2023-05-22T17:25:34.192Z,25.74
2023-05-22T17:28:00.587Z,25.72
2023-05-22T17:30:26.966Z,25.72
2023-05-22T17:32:53.493Z,25.67
2023-05-22T17:35:20.239Z,25.67
2023-05-22T17:37:47.052Z,25.64
2023-05-22T17:40:13.504Z,25.68
2023-05-22T17:42:39.933Z,25.66
2023-05-22T17:45:06.495Z,25.68
2023-05-22T17:47:32.937Z,25.63
2023-05-22T17:49:59.365Z,25.68
2023-05-22T17:52:25.776Z,25.68
2023-05-22T17:54:52.263Z,25.70
2023-05-22T17:57:18.631Z,25.71
2023-05-22T17:59:45.064Z,25.70
2023-05-22T18:02:11.476Z,25.64
2023-05-22T18:04:38.018Z,25.68
2023-05-22T18:07:04.557Z,25.66
2023-05-22T18:09:30.993Z,25.69
2023-05-22T18:11:57.413Z,25.69
2023-05-22T18:14:23.834Z,25.69
2023-05-22T18:16:50.199Z,25.69
2023-05-22T18:19:16.574Z,25.63
2023-05-22T18:21:43.052Z,25.67
2023-05-22T18:24:09.479Z,25.66
2023-05-22T18:26:35.884Z,25.65
2023-05-22T18:29:02.483Z,25.64
2023-05-22T18:31:28.928Z,25.64
2023-05-22T18:33:55.321Z,25.64
2023-05-22T18:36:21.675Z,25.60
2023-05-22T18:38:48.082Z,25.59
2023-05-22T18:41:14.523Z,25.59
2023-05-22T18:43:41.004Z,25.58
2023-05-22T18:46:07.434Z,25.60
2023-05-22T18:48:33.820Z,25.51
2023-05-22T18:51:00.356Z,25.50
2023-05-22T18:53:26.983Z,25.47
2023-05-22T18:55:53.375Z,25.51
2023-05-22T18:58:19.723Z,25.55
2023-05-22T19:00:46.286Z,25.54
2023-05-22T19:03:12.745Z,25.53
2023-05-22T19:05:39.140Z,25.49
2023-05-22T19:08:05.700Z,25.53
2023-05-22T19:10:32.078Z,25.54
2023-05-22T19:12:58.492Z,25.52
2023-05-22T19:15:24.858Z,25.49
2023-05-22T19:17:51.322Z,25.54
2023-05-22T19:20:17.783Z,25.57
2023-05-22T19:22:44.158Z,25.43
2023-05-22T19:25:10.570Z,25.50
2023-05-22T19:27:39.178Z,25.52
2023-05-22T19:30:05.933Z,25.54
2023-05-22T19:32:32.479Z,25.50
2023-05-22T19:34:58.946Z,25.48
2023-05-22T19:37:25.330Z,25.47
2023-05-22T19:39:51.739Z,25.46
2023-05-22T19:42:18.187Z,25.40
2023-05-22T19:44:44.801Z,25.45
2023-05-22T19:47:11.229Z,25.48
2023-05-22T19:49:37.641Z,25.39
2023-05-22T19:52:04.038Z,25.45
2023-05-22T19:54:30.434Z,25.50
2023-05-22T19:56:56.817Z,25.42
2023-05-22T19:59:23.186Z,25.49
2023-05-22T20:01:51.318Z,25.44
2023-05-22T20:04:19.889Z,25.43
2023-05-22T20:06:46.356Z,25.36
2023-05-22T20:09:12.740Z,25.43
2023-05-22T20:11:39.154Z,25.42
2023-05-22T20:14:05.572Z,25.43
2023-05-22T20:16:32.160Z,25.40
2023-05-22T20:18:58.604Z,25.41
2023-05-22T20:21:25.014Z,25.42
2023-05-22T20:23:51.475Z,25.43
2023-05-22T20:26:17.850Z,25.36
2023-05-22T20:28:44.213Z,25.40
2023-05-22T20:31:10.596Z,25.41
2023-05-22T20:33:36.951Z,25.40
2023-05-22T20:36:03.479Z,25.43
2023-05-22T20:38:30.131Z,25.33
2023-05-22T20:40:56.547Z,25.38
2023-05-22T20:43:23.014Z,25.36
2023-05-22T20:45:49.409Z,25.36
2023-05-22T20:48:15.827Z,25.39
2023-05-22T20:50:42.276Z,25.34
2023-05-22T20:53:08.784Z,25.35
2023-05-22T20:55:35.234Z,25.35
2023-05-22T20:58:01.674Z,25.31
2023-05-22T21:00:28.147Z,25.36
2023-05-22T21:02:56.379Z,25.34
2023-05-22T21:05:23.957Z,25.32
2023-05-22T21:07:50.407Z,25.32
2023-05-22T21:10:16.850Z,25.27
2023-05-22T21:12:43.251Z,25.28
2023-05-22T21:15:09.614Z,25.31
2023-05-22T21:17:36.058Z,25.31
2023-05-22T21:20:02.670Z,25.35
2023-05-22T21:22:29.069Z,25.30
2023-05-22T21:24:55.595Z,25.31
2023-05-22T21:27:22.016Z,25.31
2023-05-22T21:29:48.426Z,25.30
2023-05-22T21:32:15.024Z,25.28
2023-05-22T21:34:41.467Z,25.32
2023-05-22T21:37:07.923Z,25.29
2023-05-22T21:39:34.319Z,25.27
2023-05-22T21:42:00.694Z,25.29
2023-05-22T21:44:27.302Z,25.32
2023-05-22T21:46:53.847Z,25.27
2023-05-22T21:49:20.375Z,25.28
2023-05-22T21:51:46.763Z,25.31
2023-05-22T21:54:13.165Z,25.34
2023-05-22T21:56:39.534Z,25.36
2023-05-22T21:59:05.996Z,25.25
2023-05-22T22:01:32.439Z,25.30
2023-05-22T22:03:58.916Z,25.24
2023-05-22T22:06:25.464Z,25.29
2023-05-22T22:08:51.874Z,25.28
2023-05-22T22:11:18.254Z,25.26
2023-05-22T22:13:44.659Z,25.28
2023-05-22T22:16:11.100Z,25.28
2023-05-22T22:18:37.575Z,25.25
2023-05-22T22:21:03.991Z,25.27
2023-05-22T22:23:30.398Z,25.25
2023-05-22T22:25:56.798Z,25.21
2023-05-22T22:28:23.191Z,25.22
2023-05-22T22:30:49.556Z,25.25
2023-05-22T22:33:15.934Z,25.26
2023-05-22T22:35:42.545Z,25.21
2023-05-22T22:38:08.996Z,25.22
2023-05-22T22:40:35.474Z,25.24
2023-05-22T22:43:01.877Z,25.24
2023-05-22T22:45:28.305Z,25.23
2023-05-22T22:47:54.709Z,25.26
2023-05-22T22:50:21.183Z,25.26
2023-05-22T22:52:47.576Z,25.22
2023-05-22T22:55:14.049Z,25.26
2023-05-22T22:57:40.632Z,25.23
2023-05-22T23:00:07.041Z,25.22
2023-05-22T23:02:33.486Z,25.18
2023-05-22T23:05:00.050Z,25.23
2023-05-22T23:07:26.760Z,25.22
2023-05-22T23:09:53.349Z,25.20
2023-05-22T23:12:19.726Z,25.21
2023-05-22T23:14:46.086Z,25.20
2023-05-22T23:17:12.502Z,25.17
2023-05-22T23:19:38.877Z,25.23
2023-05-22T23:22:05.240Z,25.20
2023-05-22T23:24:31.615Z,25.18
2023-05-22T23:26:58.001Z,25.16
2023-05-22T23:29:24.386Z,25.19
2023-05-22T23:31:50.828Z,25.21
2023-05-22T23:34:17.309Z,25.17
2023-05-22T23:36:43.686Z,25.19
2023-05-22T23:39:10.185Z,25.21
2023-05-22T23:41:36.544Z,25.20
2023-05-22T23:44:02.969Z,25.19
2023-05-22T23:46:29.453Z,25.18
2023-05-22T23:48:55.948Z,25.18
2023-05-22T23:51:22.321Z,25.17
2023-05-22T23:53:48.723Z,25.16
2023-05-22T23:56:15.161Z,25.16
2023-05-22T23:58:41.534Z,25.17
